createdAt,value
2022-09-03T00:00:56.847Z,100204.63
2022-09-03T00:06:17.492Z,100199.97
2022-09-03T00:11:28.657Z,100201.88
2022-09-03T00:16:52.957Z,100198.91
2022-09-03T00:22:15.084Z,100181.31
2022-09-03T00:27:18.913Z,100174.50
2022-09-03T00:32:26.816Z,100173.84
2022-09-03T00:37:30.004Z,100171.69
2022-09-03T00:42:43.615Z,100177.72
2022-09-03T00:48:06.488Z,100166.78
2022-09-03T00:53:43.097Z,100170.44
2022-09-03T00:59:19.522Z,100164.94
2022-09-03T01:04:42.257Z,100163.31
2022-09-03T01:09:54.534Z,100169.69
2022-09-03T01:15:01.909Z,100161.91
2022-09-03T01:20:12.340Z,100165.47
2022-09-03T01:25:36.692Z,100163.72
2022-09-03T01:30:42.606Z,100160.81
2022-09-03T01:35:48.475Z,100165.22
2022-09-03T01:40:57.392Z,100171.53
2022-09-03T01:46:16.982Z,100181.91
2022-09-03T01:51:27.627Z,100176.75
2022-09-03T01:56:34.317Z,100185.63
2022-09-03T02:01:39.689Z,100175.59
2022-09-03T02:06:41.103Z,100177.84
2022-09-03T02:11:42.609Z,100175.81
2022-09-03T02:16:44.779Z,100181.31
2022-09-03T02:21:53.176Z,100161.47
2022-09-03T02:26:54.569Z,100172.09
2022-09-03T02:31:55.968Z,100172.94
2022-09-03T02:36:57.374Z,100175.81
2022-09-03T02:41:58.780Z,100179.41
2022-09-03T02:47:02.564Z,100174.69
2022-09-03T02:52:12.169Z,100181.66
2022-09-03T02:57:14.813Z,100176.09
2022-09-03T03:02:16.452Z,100166.56
2022-09-03T03:07:17.968Z,100163.31
2022-09-03T03:12:19.826Z,100163.88
2022-09-03T03:17:21.272Z,100162.06
2022-09-03T03:22:22.677Z,100157.06
2022-09-03T03:27:24.123Z,100157.91
2022-09-03T03:32:26.545Z,100161.41
2022-09-03T03:37:27.952Z,100162.56
2022-09-03T03:42:29.397Z,100167.88
2022-09-03T03:47:31.049Z,100173.16
2022-09-03T03:52:32.503Z,100168.78
2022-09-03T03:57:33.914Z,100158.25
2022-09-03T04:02:39.038Z,100163.72
2022-09-03T04:07:40.816Z,100170.84
2022-09-03T04:12:43.237Z,100163.81
2022-09-03T04:17:44.680Z,100163.25
2022-09-03T04:22:50.195Z,100158.75
2022-09-03T04:27:53.309Z,100158.56
2022-09-03T04:32:54.878Z,100147.38
2022-09-03T04:37:57.260Z,100151.25
2022-09-03T04:43:01.596Z,100160.00
2022-09-03T04:48:03.448Z,100155.75
2022-09-03T04:53:08.014Z,100160.00
2022-09-03T04:58:09.846Z,100168.22
2022-09-03T05:03:11.268Z,100167.69
2022-09-03T05:08:12.676Z,100166.97
2022-09-03T05:13:14.077Z,100163.06
2022-09-03T05:18:16.317Z,100158.06
2022-09-03T05:23:22.173Z,100157.25
2022-09-03T05:28:24.463Z,100160.31
2022-09-03T05:33:26.064Z,100158.91
2022-09-03T05:38:27.473Z,100157.84
2022-09-03T05:43:29.077Z,100170.44
2022-09-03T05:48:30.905Z,100164.72
2022-09-03T05:53:33.973Z,100164.72
2022-09-03T05:58:36.422Z,100164.72
2022-09-03T06:03:39.286Z,100172.59
2022-09-03T06:08:41.473Z,100173.94
2022-09-03T06:13:42.864Z,100172.88
2022-09-03T06:18:44.385Z,100165.56
2022-09-03T06:23:52.617Z,100179.06
2022-09-03T06:28:54.953Z,100176.94
2022-09-03T06:33:59.619Z,100184.66
2022-09-03T06:39:02.253Z,100187.28
2022-09-03T06:44:11.332Z,100178.84
2022-09-03T06:49:12.781Z,100181.56
2022-09-03T06:54:15.708Z,100176.66
2022-09-03T06:59:17.105Z,100179.66
2022-09-03T07:04:20.286Z,100175.69
2022-09-03T07:09:21.940Z,100167.78
2022-09-03T07:14:23.803Z,100175.41
2022-09-03T07:19:25.250Z,100171.44
2022-09-03T07:24:27.604Z,100163.25
2022-09-03T07:29:29.020Z,100159.91
2022-09-03T07:34:30.431Z,100157.16
2022-09-03T07:39:33.467Z,100149.22
2022-09-03T07:44:34.950Z,100150.28
2022-09-03T07:49:36.533Z,100146.31
2022-09-03T07:54:37.941Z,100149.28
2022-09-03T07:59:39.353Z,100151.09
2022-09-03T08:04:40.936Z,100152.78
2022-09-03T08:09:43.236Z,100135.19
2022-09-03T08:14:44.713Z,100154.59
2022-09-03T08:19:46.821Z,100142.94
2022-09-03T08:24:48.460Z,100145.97
2022-09-03T08:29:49.865Z,100139.09
2022-09-03T08:34:52.169Z,100141.72
2022-09-03T08:39:53.661Z,100132.69
2022-09-03T08:44:57.153Z,100140.31
2022-09-03T08:50:10.891Z,100136.50
2022-09-03T08:55:30.725Z,100129.69
2022-09-03T09:01:03.815Z,100130.69
2022-09-03T09:06:18.768Z,100115.50
2022-09-03T09:11:32.529Z,100115.09
2022-09-03T09:16:42.636Z,100109.97
2022-09-03T09:21:50.805Z,100110.28
2022-09-03T09:26:59.498Z,100107.78
2022-09-03T09:32:00.904Z,100105.22
2022-09-03T09:37:04.458Z,100107.47
2022-09-03T09:42:09.300Z,100096.84
2022-09-03T09:47:21.548Z,100085.19
2022-09-03T09:52:25.796Z,100078.84
2022-09-03T09:57:27.212Z,100076.13
2022-09-03T10:02:28.696Z,100077.84
2022-09-03T10:07:32.052Z,100071.84
2022-09-03T10:12:36.072Z,100072.38
2022-09-03T10:18:04.832Z,100067.47
2022-09-03T10:23:16.341Z,100065.38
2022-09-03T10:28:17.838Z,100065.38
2022-09-03T10:33:24.325Z,100062.63
2022-09-03T10:38:31.348Z,100056.75
2022-09-03T10:43:51.933Z,100059.09
2022-09-03T10:49:20.487Z,100052.34
2022-09-03T10:54:32.457Z,100046.41
2022-09-03T10:59:42.885Z,100032.59
2022-09-03T11:04:55.729Z,100034.31
2022-09-03T11:10:31.220Z,100034.84
2022-09-03T11:15:37.708Z,100022.66
2022-09-03T11:20:39.216Z,100016.66
2022-09-03T11:25:47.217Z,100014.31
2022-09-03T11:31:03.638Z,100007.19
2022-09-03T11:36:06.397Z,100000.19
2022-09-03T11:41:34.736Z,100007.00
2022-09-03T11:46:36.388Z,100004.75
2022-09-03T11:51:39.470Z,100008.41
2022-09-03T11:56:41.257Z,100018.19
2022-09-03T12:01:58.866Z,99999.34
2022-09-03T12:07:38.429Z,100005.97
2022-09-03T12:13:18.845Z,100007.38
2022-09-03T12:18:29.033Z,100002.91
2022-09-03T12:23:49.455Z,100002.75
2022-09-03T12:28:52.508Z,100000.00
2022-09-03T12:33:54.689Z,99999.78
2022-09-03T12:39:12.810Z,100003.31
2022-09-03T12:44:14.624Z,99986.69
2022-09-03T12:49:31.433Z,99981.75
2022-09-03T12:54:33.943Z,99972.91
2022-09-03T12:59:35.372Z,99967.22
2022-09-03T13:04:36.804Z,99979.03
2022-09-03T13:09:38.339Z,99972.69
2022-09-03T13:14:47.525Z,99967.75
2022-09-03T13:20:15.960Z,99968.56
2022-09-03T13:25:52.914Z,99965.00
2022-09-03T13:31:10.622Z,99966.72
2022-09-03T13:36:16.504Z,99959.56
2022-09-03T13:41:34.644Z,99955.50
2022-09-03T13:47:11.725Z,99956.59
2022-09-03T13:52:45.451Z,99955.75
2022-09-03T13:57:50.750Z,99945.88
2022-09-03T14:02:53.041Z,99942.38
2022-09-03T14:08:15.428Z,99936.06
2022-09-03T14:13:30.706Z,99931.41
2022-09-03T14:18:39.842Z,99933.31
2022-09-03T14:24:11.637Z,99930.34
2022-09-03T14:29:12.910Z,99932.50
2022-09-03T14:34:37.024Z,99938.56
2022-09-03T14:39:52.144Z,99939.34
2022-09-03T14:45:17.929Z,99938.88
2022-09-03T14:50:42.090Z,99937.81
2022-09-03T14:56:06.024Z,99941.63
2022-09-03T15:01:13.236Z,99940.78
2022-09-03T15:06:28.103Z,99945.19
2022-09-03T15:11:34.204Z,99941.84
2022-09-03T15:17:00.396Z,99940.47
2022-09-03T15:22:24.329Z,99934.00
2022-09-03T15:27:34.050Z,99939.47
2022-09-03T15:32:57.577Z,99929.91
2022-09-03T15:38:08.076Z,99933.63
2022-09-03T15:43:21.778Z,99942.44
2022-09-03T15:48:34.116Z,99930.13
2022-09-03T15:53:50.052Z,99939.47
2022-09-03T15:59:22.289Z,99939.19
2022-09-03T16:04:50.408Z,99946.91
2022-09-03T16:10:24.374Z,99943.84
2022-09-03T16:15:29.160Z,99943.00
2022-09-03T16:20:45.940Z,99940.34
2022-09-03T16:25:57.210Z,99943.66
2022-09-03T16:31:35.703Z,99937.84
2022-09-03T16:36:47.249Z,99940.59
2022-09-03T16:42:11.834Z,99949.66
2022-09-03T16:47:37.845Z,99948.25
2022-09-03T16:52:57.305Z,99934.28
2022-09-03T16:58:07.953Z,99936.78
2022-09-03T17:03:25.797Z,99943.09
2022-09-03T17:08:52.877Z,99932.38
2022-09-03T17:14:21.632Z,99937.59
2022-09-03T17:19:35.072Z,99929.31
2022-09-03T17:24:59.979Z,99939.72
2022-09-03T17:30:05.384Z,99933.63
2022-09-03T17:35:25.216Z,99939.94
2022-09-03T17:40:44.544Z,99949.00
2022-09-03T17:45:48.817Z,99947.59
2022-09-03T17:50:53.985Z,99959.38
2022-09-03T17:56:03.144Z,99962.63
2022-09-03T18:01:29.669Z,99965.38
2022-09-03T18:06:54.869Z,99964.53
2022-09-03T18:12:23.484Z,99967.88
2022-09-03T18:17:33.533Z,99978.50
2022-09-03T18:23:22.484Z,99987.56
2022-09-03T18:28:50.553Z,99996.63
2022-09-03T18:34:10.585Z,100007.59
2022-09-03T18:39:30.230Z,100009.94
2022-09-03T18:45:22.074Z,100012.78
2022-09-03T18:51:00.845Z,100016.53
2022-09-03T18:56:22.975Z,100016.22
2022-09-03T19:01:51.151Z,100011.06
2022-09-03T19:07:26.001Z,100021.97
2022-09-03T19:13:02.432Z,100024.75
2022-09-03T19:18:38.818Z,100021.97
2022-09-03T19:23:58.916Z,100014.78
2022-09-03T19:29:22.252Z,100027.97
2022-09-03T19:35:24.468Z,100026.78
2022-09-03T19:41:09.397Z,100024.00
2022-09-03T19:47:00.184Z,100027.56
2022-09-03T19:52:32.156Z,100036.41
2022-09-03T19:57:52.156Z,100040.25
2022-09-03T20:03:15.757Z,100046.47
2022-09-03T20:08:35.945Z,100052.78
2022-09-03T20:13:58.937Z,100042.16
2022-09-03T20:19:06.404Z,100061.00
2022-09-03T20:24:33.292Z,100065.94
2022-09-03T20:29:59.629Z,100060.38
2022-09-03T20:35:08.164Z,100057.44
2022-09-03T20:40:29.712Z,100068.34
2022-09-03T20:46:10.015Z,100068.28
2022-09-03T20:51:17.445Z,100083.81
2022-09-03T20:56:25.088Z,100080.41
2022-09-03T21:01:57.364Z,100083.13
2022-09-03T21:07:13.182Z,100078.22
2022-09-03T21:12:21.424Z,100079.16
2022-09-03T21:17:28.825Z,100082.41
2022-09-03T21:22:38.980Z,100081.41
2022-09-03T21:27:46.315Z,100074.09
2022-09-03T21:32:52.053Z,100080.16
2022-09-03T21:38:13.540Z,100082.72
2022-09-03T21:43:20.513Z,100090.94
2022-09-03T21:48:28.036Z,100087.28
2022-09-03T21:53:43.077Z,100092.69
2022-09-03T21:58:50.416Z,100098.59
2022-09-03T22:03:51.908Z,100101.16
2022-09-03T22:09:01.861Z,100103.97
2022-09-03T22:14:08.511Z,100108.78
2022-09-03T22:19:09.939Z,100096.66
2022-09-03T22:24:24.568Z,100104.44
2022-09-03T22:29:53.030Z,100098.72
2022-09-03T22:35:03.684Z,100099.97
2022-09-03T22:40:37.794Z,100103.22
2022-09-03T22:45:59.283Z,100095.16
2022-09-03T22:51:01.718Z,100097.63
2022-09-03T22:56:14.641Z,100109.91
2022-09-03T23:01:42.421Z,100107.75
2022-09-03T23:07:01.709Z,100096.00
2022-09-03T23:12:20.037Z,100104.13
2022-09-03T23:17:25.146Z,100107.75
2022-09-03T23:22:59.570Z,100108.09
2022-09-03T23:28:03.044Z,100104.94
2022-09-03T23:33:04.470Z,100109.91
2022-09-03T23:38:05.749Z,100104.81
2022-09-03T23:43:15.776Z,100111.50
2022-09-03T23:48:41.916Z,100105.88
2022-09-03T23:54:02.400Z,100102.63
2022-09-03T23:59:22.084Z,100104.53
